Terminal Aerodrome Forecast
Issued by NWS

Home | Current Version | Previous Version | Text Only | Print | Product List | Glossary On
Versions: 1 2 3 4 5 6 7 8 9 10 11
000
FTUS42 KMLB 272300 RRA
TAFISM
TAF
KISM 272346Z 2800/2824 00000KT P6SM BKN035
     FM280200 06005KT 5SM BR BKN012 OVC030
      TEMPO 2804/2806 2SM BR OVC010
     FM280600 00000KT 3SM BR OVC008
     FM280900 00000KT 2SM BR OVC004
      TEMPO 2809/2812 1/2SM FG OVC002
     FM281300 16004KT 6SM HZ BKN008 BKN020
      AMD NOT SKED 2803/2812=

USA.gov is the U.S. government's official web portal to all federal, state and local government web resources and services.